sensor_id;sensor_type;location;lat;lon;timestamp;P1;durP1;ratioP1;P2;durP2;ratioP2
13085;SDS011;6609;49.882;8.664;2023-02-28T00:00:00;4.35;;;2.25;;
13085;SDS011;6609;49.882;8.664;2023-02-28T00:02:33;4.85;;;2.65;;
13085;SDS011;6609;49.882;8.664;2023-02-28T00:05:00;3.78;;;1.83;;
13085;SDS011;6609;49.882;8.664;2023-02-28T00:07:28;4.30;;;2.55;;
13085;SDS011;6609;49.882;8.664;2023-02-28T00:09:55;6.78;;;2.60;;
13085;SDS011;6609;49.882;8.664;2023-02-28T00:12:22;5.85;;;2.65;;
13085;SDS011;6609;49.882;8.664;2023-02-28T00:14:49;7.00;;;3.05;;
13085;SDS011;6609;49.882;8.664;2023-02-28T00:17:18;5.57;;;2.53;;
13085;SDS011;6609;49.882;8.664;2023-02-28T00:19:46;4.55;;;2.30;;
13085;SDS011;6609;49.882;8.664;2023-02-28T00:22:13;4.90;;;2.33;;
13085;SDS011;6609;49.882;8.664;2023-02-28T00:24:40;5.13;;;2.85;;
13085;SDS011;6609;49.882;8.664;2023-02-28T00:27:06;4.47;;;2.70;;
13085;SDS011;6609;49.882;8.664;2023-02-28T00:29:33;7.25;;;2.88;;
13085;SDS011;6609;49.882;8.664;2023-02-28T00:32:01;4.25;;;2.70;;
13085;SDS011;6609;49.882;8.664;2023-02-28T00:34:29;5.38;;;2.90;;
13085;SDS011;6609;49.882;8.664;2023-02-28T00:36:56;6.00;;;2.45;;
13085;SDS011;6609;49.882;8.664;2023-02-28T00:39:23;4.03;;;2.40;;
13085;SDS011;6609;49.882;8.664;2023-02-28T00:41:50;4.50;;;2.50;;
13085;SDS011;6609;49.882;8.664;2023-02-28T00:44:17;4.80;;;2.75;;
13085;SDS011;6609;49.882;8.664;2023-02-28T00:46:46;4.53;;;2.55;;
13085;SDS011;6609;49.882;8.664;2023-02-28T00:49:13;4.30;;;2.30;;
13085;SDS011;6609;49.882;8.664;2023-02-28T00:51:41;4.57;;;2.63;;
13085;SDS011;6609;49.882;8.664;2023-02-28T00:54:08;4.93;;;2.13;;
13085;SDS011;6609;49.882;8.664;2023-02-28T00:56:35;6.43;;;3.42;;
13085;SDS011;6609;49.882;8.664;2023-02-28T00:59:01;4.45;;;2.80;;
13085;SDS011;6609;49.882;8.664;2023-02-28T01:01:28;7.07;;;2.88;;
13085;SDS011;6609;49.882;8.664;2023-02-28T01:03:58;6.15;;;2.65;;
13085;SDS011;6609;49.882;8.664;2023-02-28T01:06:25;4.85;;;2.55;;
13085;SDS011;6609;49.882;8.664;2023-02-28T01:08:54;4.13;;;2.20;;
13085;SDS011;6609;49.882;8.664;2023-02-28T01:11:21;5.30;;;1.73;;
13085;SDS011;6609;49.882;8.664;2023-02-28T01:13:48;3.55;;;2.20;;
13085;SDS011;6609;49.882;8.664;2023-02-28T01:16:14;8.32;;;4.15;;
13085;SDS011;6609;49.882;8.664;2023-02-28T01:18:42;5.43;;;3.28;;
13085;SDS011;6609;49.882;8.664;2023-02-28T01:21:10;5.35;;;2.60;;
13085;SDS011;6609;49.882;8.664;2023-02-28T01:23:38;6.00;;;2.75;;
13085;SDS011;6609;49.882;8.664;2023-02-28T01:26:06;5.00;;;2.90;;
13085;SDS011;6609;49.882;8.664;2023-02-28T01:28:34;6.03;;;3.45;;
13085;SDS011;6609;49.882;8.664;2023-02-28T01:31:01;5.10;;;2.55;;
13085;SDS011;6609;49.882;8.664;2023-02-28T01:33:28;8.10;;;2.75;;
13085;SDS011;6609;49.882;8.664;2023-02-28T01:35:58;4.15;;;2.40;;
13085;SDS011;6609;49.882;8.664;2023-02-28T01:38:25;5.28;;;2.58;;
13085;SDS011;6609;49.882;8.664;2023-02-28T01:40:52;5.30;;;2.85;;
13085;SDS011;6609;49.882;8.664;2023-02-28T01:43:22;5.53;;;2.97;;
13085;SDS011;6609;49.882;8.664;2023-02-28T01:45:50;5.93;;;3.13;;
13085;SDS011;6609;49.882;8.664;2023-02-28T01:48:17;5.90;;;2.92;;
13085;SDS011;6609;49.882;8.664;2023-02-28T01:50:45;4.95;;;3.13;;
13085;SDS011;6609;49.882;8.664;2023-02-28T01:53:14;7.78;;;3.15;;
13085;SDS011;6609;49.882;8.664;2023-02-28T01:55:45;9.45;;;3.55;;
13085;SDS011;6609;49.882;8.664;2023-02-28T01:58:16;5.28;;;3.25;;
13085;SDS011;6609;49.882;8.664;2023-02-28T02:00:44;7.35;;;3.65;;
13085;SDS011;6609;49.882;8.664;2023-02-28T02:03:13;6.75;;;3.40;;
13085;SDS011;6609;49.882;8.664;2023-02-28T02:05:44;7.47;;;4.10;;
13085;SDS011;6609;49.882;8.664;2023-02-28T02:08:13;6.32;;;3.72;;
13085;SDS011;6609;49.882;8.664;2023-02-28T02:10:44;4.82;;;2.63;;
13085;SDS011;6609;49.882;8.664;2023-02-28T02:13:21;9.25;;;4.15;;
13085;SDS011;6609;49.882;8.664;2023-02-28T02:16:02;7.38;;;3.08;;
13085;SDS011;6609;49.882;8.664;2023-02-28T02:18:38;8.20;;;3.35;;
13085;SDS011;6609;49.882;8.664;2023-02-28T02:21:17;7.65;;;3.13;;
13085;SDS011;6609;49.882;8.664;2023-02-28T02:26:58;19.20;;;6.85;;
13085;SDS011;6609;49.882;8.664;2023-02-28T02:29:37;6.43;;;3.65;;
13085;SDS011;6609;49.882;8.664;2023-02-28T02:35:13;7.07;;;3.30;;
13085;SDS011;6609;49.882;8.664;2023-02-28T02:37:42;6.15;;;2.92;;
13085;SDS011;6609;49.882;8.664;2023-02-28T02:40:13;5.05;;;2.83;;
13085;SDS011;6609;49.882;8.664;2023-02-28T02:42:45;4.28;;;2.90;;
13085;SDS011;6609;49.882;8.664;2023-02-28T02:45:17;5.22;;;2.78;;
13085;SDS011;6609;49.882;8.664;2023-02-28T02:47:49;7.07;;;3.67;;
13085;SDS011;6609;49.882;8.664;2023-02-28T02:50:19;6.20;;;2.92;;
13085;SDS011;6609;49.882;8.664;2023-02-28T02:52:51;5.40;;;2.50;;
13085;SDS011;6609;49.882;8.664;2023-02-28T02:55:22;7.57;;;2.95;;
13085;SDS011;6609;49.882;8.664;2023-02-28T02:57:50;5.35;;;3.22;;
13085;SDS011;6609;49.882;8.664;2023-02-28T03:00:22;5.53;;;3.20;;
13085;SDS011;6609;49.882;8.664;2023-02-28T03:02:50;4.60;;;2.97;;
13085;SDS011;6609;49.882;8.664;2023-02-28T03:05:21;4.95;;;2.97;;
13085;SDS011;6609;49.882;8.664;2023-02-28T03:07:49;5.07;;;3.60;;
13085;SDS011;6609;49.882;8.664;2023-02-28T03:10:30;6.55;;;2.78;;
13085;SDS011;6609;49.882;8.664;2023-02-28T03:13:06;6.03;;;3.30;;
13085;SDS011;6609;49.882;8.664;2023-02-28T03:15:43;6.63;;;3.65;;
13085;SDS011;6609;49.882;8.664;2023-02-28T03:18:23;5.57;;;3.20;;
13085;SDS011;6609;49.882;8.664;2023-02-28T03:21:00;4.70;;;2.88;;
13085;SDS011;6609;49.882;8.664;2023-02-28T03:23:32;7.07;;;3.65;;
13085;SDS011;6609;49.882;8.664;2023-02-28T03:26:06;4.88;;;2.80;;
13085;SDS011;6609;49.882;8.664;2023-02-28T03:28:41;6.50;;;3.15;;
13085;SDS011;6609;49.882;8.664;2023-02-28T03:31:12;4.85;;;2.92;;
13085;SDS011;6609;49.882;8.664;2023-02-28T03:33:46;5.32;;;3.25;;
13085;SDS011;6609;49.882;8.664;2023-02-28T03:36:21;7.90;;;4.68;;
13085;SDS011;6609;49.882;8.664;2023-02-28T03:38:53;5.57;;;3.13;;
13085;SDS011;6609;49.882;8.664;2023-02-28T03:41:21;5.18;;;2.95;;
13085;SDS011;6609;49.882;8.664;2023-02-28T03:43:52;5.97;;;3.40;;
13085;SDS011;6609;49.882;8.664;2023-02-28T03:46:22;4.60;;;3.15;;
13085;SDS011;6609;49.882;8.664;2023-02-28T03:48:53;5.32;;;3.20;;
13085;SDS011;6609;49.882;8.664;2023-02-28T03:51:27;4.70;;;3.25;;
13085;SDS011;6609;49.882;8.664;2023-02-28T03:53:57;6.28;;;3.30;;
13085;SDS011;6609;49.882;8.664;2023-02-28T03:56:30;5.82;;;4.25;;
13085;SDS011;6609;49.882;8.664;2023-02-28T03:59:02;4.55;;;3.00;;
13085;SDS011;6609;49.882;8.664;2023-02-28T04:01:33;7.70;;;3.85;;
13085;SDS011;6609;49.882;8.664;2023-02-28T04:04:04;4.47;;;3.15;;
13085;SDS011;6609;49.882;8.664;2023-02-28T04:06:32;5.57;;;3.67;;
13085;SDS011;6609;49.882;8.664;2023-02-28T04:09:00;4.22;;;3.30;;
13085;SDS011;6609;49.882;8.664;2023-02-28T04:11:30;5.80;;;3.47;;
13085;SDS011;6609;49.882;8.664;2023-02-28T04:13:59;9.60;;;3.75;;
13085;SDS011;6609;49.882;8.664;2023-02-28T04:16:27;6.03;;;3.30;;
13085;SDS011;6609;49.882;8.664;2023-02-28T04:18:54;4.35;;;3.30;;
13085;SDS011;6609;49.882;8.664;2023-02-28T04:21:26;6.68;;;3.70;;
13085;SDS011;6609;49.882;8.664;2023-02-28T04:23:55;5.03;;;3.50;;
13085;SDS011;6609;49.882;8.664;2023-02-28T04:26:25;4.45;;;3.35;;
13085;SDS011;6609;49.882;8.664;2023-02-28T04:28:54;5.22;;;3.33;;
13085;SDS011;6609;49.882;8.664;2023-02-28T04:31:21;5.13;;;3.53;;
13085;SDS011;6609;49.882;8.664;2023-02-28T04:33:48;5.85;;;3.63;;
13085;SDS011;6609;49.882;8.664;2023-02-28T04:36:16;7.05;;;4.28;;
13085;SDS011;6609;49.882;8.664;2023-02-28T04:38:43;5.88;;;3.80;;
13085;SDS011;6609;49.882;8.664;2023-02-28T04:41:12;6.22;;;3.63;;
13085;SDS011;6609;49.882;8.664;2023-02-28T04:43:39;7.78;;;4.03;;
13085;SDS011;6609;49.882;8.664;2023-02-28T04:46:06;4.30;;;3.17;;
13085;SDS011;6609;49.882;8.664;2023-02-28T04:48:34;6.93;;;4.00;;
13085;SDS011;6609;49.882;8.664;2023-02-28T04:51:03;10.20;;;5.35;;
13085;SDS011;6609;49.882;8.664;2023-02-28T04:53:32;11.38;;;4.00;;
13085;SDS011;6609;49.882;8.664;2023-02-28T04:55:59;6.35;;;3.60;;
13085;SDS011;6609;49.882;8.664;2023-02-28T04:58:27;7.20;;;3.95;;
13085;SDS011;6609;49.882;8.664;2023-02-28T05:00:56;5.93;;;3.58;;
13085;SDS011;6609;49.882;8.664;2023-02-28T05:03:28;7.70;;;4.40;;
13085;SDS011;6609;49.882;8.664;2023-02-28T05:05:55;5.93;;;3.55;;
13085;SDS011;6609;49.882;8.664;2023-02-28T05:08:21;4.75;;;3.33;;
13085;SDS011;6609;49.882;8.664;2023-02-28T05:10:49;8.00;;;4.10;;
13085;SDS011;6609;49.882;8.664;2023-02-28T05:13:16;5.35;;;3.20;;
13085;SDS011;6609;49.882;8.664;2023-02-28T05:15:43;7.43;;;3.58;;
13085;SDS011;6609;49.882;8.664;2023-02-28T05:18:10;5.38;;;3.05;;
13085;SDS011;6609;49.882;8.664;2023-02-28T05:20:37;7.95;;;4.38;;
13085;SDS011;6609;49.882;8.664;2023-02-28T05:23:04;8.10;;;4.10;;
13085;SDS011;6609;49.882;8.664;2023-02-28T05:25:30;5.78;;;3.42;;
13085;SDS011;6609;49.882;8.664;2023-02-28T05:27:57;6.00;;;3.33;;
13085;SDS011;6609;49.882;8.664;2023-02-28T05:30:25;6.43;;;3.85;;
13085;SDS011;6609;49.882;8.664;2023-02-28T05:32:53;5.80;;;3.50;;
13085;SDS011;6609;49.882;8.664;2023-02-28T05:35:20;5.05;;;3.60;;
13085;SDS011;6609;49.882;8.664;2023-02-28T05:37:46;5.53;;;3.35;;
13085;SDS011;6609;49.882;8.664;2023-02-28T05:40:13;7.65;;;3.42;;
13085;SDS011;6609;49.882;8.664;2023-02-28T05:42:40;7.65;;;3.90;;
13085;SDS011;6609;49.882;8.664;2023-02-28T05:45:07;5.35;;;3.10;;
13085;SDS011;6609;49.882;8.664;2023-02-28T05:47:35;6.75;;;3.83;;
13085;SDS011;6609;49.882;8.664;2023-02-28T05:50:04;7.78;;;4.22;;
13085;SDS011;6609;49.882;8.664;2023-02-28T05:52:31;12.40;;;5.47;;
13085;SDS011;6609;49.882;8.664;2023-02-28T05:54:58;6.28;;;3.45;;
13085;SDS011;6609;49.882;8.664;2023-02-28T05:57:25;5.70;;;3.42;;
13085;SDS011;6609;49.882;8.664;2023-02-28T05:59:52;5.30;;;3.80;;
13085;SDS011;6609;49.882;8.664;2023-02-28T06:02:19;7.85;;;4.22;;
13085;SDS011;6609;49.882;8.664;2023-02-28T06:04:46;6.07;;;3.72;;
13085;SDS011;6609;49.882;8.664;2023-02-28T06:07:14;5.78;;;3.45;;
13085;SDS011;6609;49.882;8.664;2023-02-28T06:09:42;6.75;;;4.10;;
13085;SDS011;6609;49.882;8.664;2023-02-28T06:12:09;7.55;;;3.70;;
13085;SDS011;6609;49.882;8.664;2023-02-28T06:14:36;5.80;;;4.00;;
13085;SDS011;6609;49.882;8.664;2023-02-28T06:17:03;6.00;;;3.53;;
13085;SDS011;6609;49.882;8.664;2023-02-28T06:19:30;8.43;;;4.43;;
13085;SDS011;6609;49.882;8.664;2023-02-28T06:22:00;5.78;;;3.78;;
13085;SDS011;6609;49.882;8.664;2023-02-28T06:24:29;6.23;;;3.93;;
13085;SDS011;6609;49.882;8.664;2023-02-28T06:26:56;5.38;;;2.75;;
13085;SDS011;6609;49.882;8.664;2023-02-28T06:29:23;5.03;;;4.00;;
13085;SDS011;6609;49.882;8.664;2023-02-28T06:31:51;5.50;;;3.47;;
13085;SDS011;6609;49.882;8.664;2023-02-28T06:34:18;8.60;;;4.60;;
13085;SDS011;6609;49.882;8.664;2023-02-28T06:36:44;5.95;;;3.85;;
13085;SDS011;6609;49.882;8.664;2023-02-28T06:39:11;12.98;;;5.63;;
13085;SDS011;6609;49.882;8.664;2023-02-28T06:41:40;8.85;;;4.28;;
13085;SDS011;6609;49.882;8.664;2023-02-28T06:44:10;5.75;;;3.50;;
13085;SDS011;6609;49.882;8.664;2023-02-28T06:46:38;10.25;;;4.93;;
13085;SDS011;6609;49.882;8.664;2023-02-28T06:49:05;5.53;;;3.40;;
13085;SDS011;6609;49.882;8.664;2023-02-28T06:51:34;8.70;;;4.60;;
13085;SDS011;6609;49.882;8.664;2023-02-28T06:54:01;7.03;;;4.03;;
13085;SDS011;6609;49.882;8.664;2023-02-28T06:56:29;8.15;;;4.63;;
13085;SDS011;6609;49.882;8.664;2023-02-28T06:58:57;6.97;;;3.80;;
13085;SDS011;6609;49.882;8.664;2023-02-28T07:01:24;7.85;;;4.07;;
13085;SDS011;6609;49.882;8.664;2023-02-28T07:03:53;6.60;;;3.67;;
13085;SDS011;6609;49.882;8.664;2023-02-28T07:06:20;10.57;;;4.63;;
13085;SDS011;6609;49.882;8.664;2023-02-28T07:08:48;9.30;;;4.05;;
13085;SDS011;6609;49.882;8.664;2023-02-28T07:11:15;8.13;;;3.97;;
13085;SDS011;6609;49.882;8.664;2023-02-28T07:13:42;9.13;;;4.20;;
13085;SDS011;6609;49.882;8.664;2023-02-28T07:16:11;8.70;;;4.45;;
13085;SDS011;6609;49.882;8.664;2023-02-28T07:18:38;9.43;;;4.40;;
13085;SDS011;6609;49.882;8.664;2023-02-28T07:21:06;9.70;;;4.75;;
13085;SDS011;6609;49.882;8.664;2023-02-28T07:23:34;8.27;;;3.90;;
13085;SDS011;6609;49.882;8.664;2023-02-28T07:26:03;7.80;;;3.95;;
13085;SDS011;6609;49.882;8.664;2023-02-28T07:28:30;9.73;;;4.38;;
13085;SDS011;6609;49.882;8.664;2023-02-28T07:31:02;7.00;;;3.83;;
13085;SDS011;6609;49.882;8.664;2023-02-28T07:33:30;7.57;;;3.92;;
13085;SDS011;6609;49.882;8.664;2023-02-28T07:35:59;10.57;;;4.38;;
13085;SDS011;6609;49.882;8.664;2023-02-28T07:38:27;7.00;;;3.55;;
13085;SDS011;6609;49.882;8.664;2023-02-28T07:40:54;16.10;;;4.75;;
13085;SDS011;6609;49.882;8.664;2023-02-28T07:43:21;9.52;;;3.55;;
13085;SDS011;6609;49.882;8.664;2023-02-28T07:45:48;13.15;;;4.35;;
13085;SDS011;6609;49.882;8.664;2023-02-28T07:48:15;11.18;;;4.32;;
13085;SDS011;6609;49.882;8.664;2023-02-28T07:50:43;13.48;;;5.32;;
13085;SDS011;6609;49.882;8.664;2023-02-28T07:53:13;12.30;;;4.38;;
13085;SDS011;6609;49.882;8.664;2023-02-28T07:55:40;11.65;;;3.90;;
13085;SDS011;6609;49.882;8.664;2023-02-28T07:58:07;7.28;;;3.45;;
13085;SDS011;6609;49.882;8.664;2023-02-28T08:00:33;10.55;;;4.88;;
13085;SDS011;6609;49.882;8.664;2023-02-28T08:03:00;10.07;;;3.97;;
13085;SDS011;6609;49.882;8.664;2023-02-28T08:05:28;9.32;;;3.92;;
13085;SDS011;6609;49.882;8.664;2023-02-28T08:07:56;11.88;;;4.47;;
13085;SDS011;6609;49.882;8.664;2023-02-28T08:10:23;14.93;;;5.15;;
13085;SDS011;6609;49.882;8.664;2023-02-28T08:12:50;9.88;;;3.47;;
13085;SDS011;6609;49.882;8.664;2023-02-28T08:15:17;10.15;;;3.72;;
13085;SDS011;6609;49.882;8.664;2023-02-28T08:17:46;11.40;;;4.10;;
13085;SDS011;6609;49.882;8.664;2023-02-28T08:20:13;9.18;;;5.20;;
13085;SDS011;6609;49.882;8.664;2023-02-28T08:22:41;10.13;;;3.78;;
13085;SDS011;6609;49.882;8.664;2023-02-28T08:25:10;15.18;;;4.65;;
13085;SDS011;6609;49.882;8.664;2023-02-28T08:27:36;8.68;;;3.22;;
13085;SDS011;6609;49.882;8.664;2023-02-28T08:30:03;6.88;;;3.45;;
13085;SDS011;6609;49.882;8.664;2023-02-28T08:32:31;7.03;;;3.15;;
13085;SDS011;6609;49.882;8.664;2023-02-28T08:34:58;7.22;;;3.40;;
13085;SDS011;6609;49.882;8.664;2023-02-28T08:37:26;7.65;;;3.35;;
13085;SDS011;6609;49.882;8.664;2023-02-28T08:39:53;5.32;;;3.10;;
13085;SDS011;6609;49.882;8.664;2023-02-28T08:42:22;8.50;;;3.72;;
13085;SDS011;6609;49.882;8.664;2023-02-28T08:44:48;7.75;;;4.05;;
13085;SDS011;6609;49.882;8.664;2023-02-28T08:47:15;8.23;;;3.88;;
13085;SDS011;6609;49.882;8.664;2023-02-28T08:49:43;6.22;;;4.40;;
13085;SDS011;6609;49.882;8.664;2023-02-28T08:52:10;7.65;;;3.25;;
13085;SDS011;6609;49.882;8.664;2023-02-28T08:54:37;9.13;;;3.67;;
13085;SDS011;6609;49.882;8.664;2023-02-28T08:57:03;6.45;;;3.22;;
13085;SDS011;6609;49.882;8.664;2023-02-28T08:59:31;9.18;;;4.47;;
13085;SDS011;6609;49.882;8.664;2023-02-28T09:01:58;11.38;;;4.30;;
13085;SDS011;6609;49.882;8.664;2023-02-28T09:04:25;10.38;;;4.45;;
13085;SDS011;6609;49.882;8.664;2023-02-28T09:06:55;9.48;;;3.38;;
13085;SDS011;6609;49.882;8.664;2023-02-28T09:09:22;7.80;;;4.72;;
13085;SDS011;6609;49.882;8.664;2023-02-28T09:11:49;12.23;;;4.75;;
13085;SDS011;6609;49.882;8.664;2023-02-28T09:14:16;8.33;;;3.90;;
13085;SDS011;6609;49.882;8.664;2023-02-28T09:16:46;10.57;;;5.00;;
13085;SDS011;6609;49.882;8.664;2023-02-28T09:19:13;7.47;;;3.88;;
13085;SDS011;6609;49.882;8.664;2023-02-28T09:21:40;8.82;;;3.90;;
13085;SDS011;6609;49.882;8.664;2023-02-28T09:24:08;9.38;;;4.22;;
13085;SDS011;6609;49.882;8.664;2023-02-28T09:26:36;11.67;;;4.23;;
13085;SDS011;6609;49.882;8.664;2023-02-28T09:29:03;12.43;;;4.53;;
13085;SDS011;6609;49.882;8.664;2023-02-28T09:31:31;9.53;;;4.63;;
13085;SDS011;6609;49.882;8.664;2023-02-28T09:34:00;11.57;;;4.13;;
13085;SDS011;6609;49.882;8.664;2023-02-28T09:36:27;11.93;;;4.90;;
13085;SDS011;6609;49.882;8.664;2023-02-28T09:38:55;11.90;;;4.43;;
13085;SDS011;6609;49.882;8.664;2023-02-28T09:41:23;14.77;;;5.33;;
13085;SDS011;6609;49.882;8.664;2023-02-28T09:43:55;12.30;;;5.10;;
13085;SDS011;6609;49.882;8.664;2023-02-28T09:46:31;10.27;;;5.40;;
13085;SDS011;6609;49.882;8.664;2023-02-28T09:49:02;12.07;;;4.60;;
13085;SDS011;6609;49.882;8.664;2023-02-28T09:51:37;13.20;;;5.50;;
13085;SDS011;6609;49.882;8.664;2023-02-28T09:54:12;13.50;;;5.43;;
13085;SDS011;6609;49.882;8.664;2023-02-28T09:56:44;11.63;;;5.60;;
13085;SDS011;6609;49.882;8.664;2023-02-28T09:59:15;8.60;;;4.80;;
13085;SDS011;6609;49.882;8.664;2023-02-28T10:01:54;7.67;;;4.30;;
13085;SDS011;6609;49.882;8.664;2023-02-28T10:04:34;9.87;;;4.73;;
13085;SDS011;6609;49.882;8.664;2023-02-28T10:07:10;10.40;;;4.93;;
13085;SDS011;6609;49.882;8.664;2023-02-28T10:09:45;15.40;;;5.47;;
13085;SDS011;6609;49.882;8.664;2023-02-28T10:12:13;11.80;;;5.40;;
13085;SDS011;6609;49.882;8.664;2023-02-28T10:14:44;10.27;;;4.60;;
13085;SDS011;6609;49.882;8.664;2023-02-28T10:17:13;12.93;;;4.93;;
13085;SDS011;6609;49.882;8.664;2023-02-28T10:19:46;12.80;;;5.83;;
13085;SDS011;6609;49.882;8.664;2023-02-28T10:22:22;8.27;;;4.57;;
13085;SDS011;6609;49.882;8.664;2023-02-28T10:24:52;13.17;;;5.33;;
13085;SDS011;6609;49.882;8.664;2023-02-28T10:27:22;10.47;;;4.80;;
13085;SDS011;6609;49.882;8.664;2023-02-28T10:29:50;10.40;;;4.80;;
13085;SDS011;6609;49.882;8.664;2023-02-28T10:32:20;13.77;;;5.73;;
13085;SDS011;6609;49.882;8.664;2023-02-28T10:34:52;10.00;;;5.77;;
13085;SDS011;6609;49.882;8.664;2023-02-28T10:37:22;12.90;;;5.70;;
13085;SDS011;6609;49.882;8.664;2023-02-28T10:39:49;9.33;;;3.97;;
13085;SDS011;6609;49.882;8.664;2023-02-28T10:42:21;7.07;;;4.40;;
13085;SDS011;6609;49.882;8.664;2023-02-28T10:45:03;9.73;;;4.93;;
13085;SDS011;6609;49.882;8.664;2023-02-28T10:47:33;7.97;;;4.10;;
13085;SDS011;6609;49.882;8.664;2023-02-28T10:50:03;15.57;;;5.40;;
13085;SDS011;6609;49.882;8.664;2023-02-28T10:52:35;9.47;;;4.80;;
13085;SDS011;6609;49.882;8.664;2023-02-28T10:55:18;9.03;;;4.10;;
13085;SDS011;6609;49.882;8.664;2023-02-28T10:57:47;8.40;;;4.27;;
13085;SDS011;6609;49.882;8.664;2023-02-28T11:00:15;9.00;;;4.80;;
13085;SDS011;6609;49.882;8.664;2023-02-28T11:02:44;14.73;;;6.00;;
13085;SDS011;6609;49.882;8.664;2023-02-28T11:05:29;10.83;;;5.00;;
13085;SDS011;6609;49.882;8.664;2023-02-28T11:07:59;14.80;;;6.70;;
13085;SDS011;6609;49.882;8.664;2023-02-28T11:10:31;7.90;;;4.70;;
13085;SDS011;6609;49.882;8.664;2023-02-28T11:12:59;9.50;;;5.00;;
13085;SDS011;6609;49.882;8.664;2023-02-28T11:15:28;7.33;;;4.57;;
13085;SDS011;6609;49.882;8.664;2023-02-28T11:17:56;9.10;;;4.73;;
13085;SDS011;6609;49.882;8.664;2023-02-28T11:20:24;9.20;;;5.03;;
13085;SDS011;6609;49.882;8.664;2023-02-28T11:22:54;9.20;;;5.07;;
13085;SDS011;6609;49.882;8.664;2023-02-28T11:25:23;9.37;;;4.90;;
13085;SDS011;6609;49.882;8.664;2023-02-28T11:27:52;9.17;;;4.83;;
13085;SDS011;6609;49.882;8.664;2023-02-28T11:30:24;10.60;;;5.23;;
13085;SDS011;6609;49.882;8.664;2023-02-28T11:32:51;8.10;;;4.70;;
13085;SDS011;6609;49.882;8.664;2023-02-28T11:35:20;9.97;;;5.20;;
13085;SDS011;6609;49.882;8.664;2023-02-28T11:37:50;7.87;;;4.67;;
13085;SDS011;6609;49.882;8.664;2023-02-28T11:40:22;9.97;;;4.63;;
13085;SDS011;6609;49.882;8.664;2023-02-28T11:42:57;10.67;;;5.70;;
13085;SDS011;6609;49.882;8.664;2023-02-28T11:45:39;10.10;;;5.53;;
13085;SDS011;6609;49.882;8.664;2023-02-28T11:48:13;9.93;;;4.63;;
13085;SDS011;6609;49.882;8.664;2023-02-28T11:50:59;7.73;;;4.73;;
13085;SDS011;6609;49.882;8.664;2023-02-28T11:53:40;8.87;;;5.13;;
13085;SDS011;6609;49.882;8.664;2023-02-28T11:56:13;9.77;;;5.23;;
13085;SDS011;6609;49.882;8.664;2023-02-28T11:58:48;7.80;;;4.60;;
13085;SDS011;6609;49.882;8.664;2023-02-28T12:01:27;9.20;;;5.03;;
13085;SDS011;6609;49.882;8.664;2023-02-28T12:04:11;7.97;;;4.77;;
13085;SDS011;6609;49.882;8.664;2023-02-28T12:06:48;6.33;;;4.77;;
13085;SDS011;6609;49.882;8.664;2023-02-28T12:09:28;10.03;;;5.43;;
13085;SDS011;6609;49.882;8.664;2023-02-28T12:12:10;14.33;;;6.13;;
13085;SDS011;6609;49.882;8.664;2023-02-28T12:14:59;11.93;;;6.27;;
13085;SDS011;6609;49.882;8.664;2023-02-28T12:17:43;9.00;;;4.80;;
13085;SDS011;6609;49.882;8.664;2023-02-28T12:20:24;8.27;;;5.10;;
13085;SDS011;6609;49.882;8.664;2023-02-28T12:23:00;9.20;;;4.53;;
13085;SDS011;6609;49.882;8.664;2023-02-28T12:25:47;13.20;;;5.87;;
13085;SDS011;6609;49.882;8.664;2023-02-28T12:28:23;6.63;;;4.27;;
13085;SDS011;6609;49.882;8.664;2023-02-28T12:30:53;9.77;;;5.33;;
13085;SDS011;6609;49.882;8.664;2023-02-28T12:33:23;12.37;;;5.43;;
13085;SDS011;6609;49.882;8.664;2023-02-28T12:35:55;7.37;;;4.83;;
13085;SDS011;6609;49.882;8.664;2023-02-28T12:38:23;11.47;;;5.60;;
13085;SDS011;6609;49.882;8.664;2023-02-28T12:40:54;9.47;;;4.97;;
13085;SDS011;6609;49.882;8.664;2023-02-28T12:43:27;11.43;;;5.77;;
13085;SDS011;6609;49.882;8.664;2023-02-28T12:45:58;11.50;;;5.37;;
13085;SDS011;6609;49.882;8.664;2023-02-28T12:48:31;9.27;;;4.70;;
13085;SDS011;6609;49.882;8.664;2023-02-28T12:51:05;12.60;;;5.40;;
13085;SDS011;6609;49.882;8.664;2023-02-28T12:53:36;12.27;;;5.40;;
13085;SDS011;6609;49.882;8.664;2023-02-28T12:56:16;12.43;;;5.70;;
13085;SDS011;6609;49.882;8.664;2023-02-28T12:58:48;13.03;;;5.57;;
13085;SDS011;6609;49.882;8.664;2023-02-28T13:01:28;12.93;;;5.57;;
13085;SDS011;6609;49.882;8.664;2023-02-28T13:07:10;11.13;;;5.60;;
13085;SDS011;6609;49.882;8.664;2023-02-28T13:09:56;11.47;;;5.17;;
13085;SDS011;6609;49.882;8.664;2023-02-28T13:12:25;10.40;;;5.00;;
13085;SDS011;6609;49.882;8.664;2023-02-28T13:15:01;13.87;;;6.27;;
13085;SDS011;6609;49.882;8.664;2023-02-28T13:17:36;11.00;;;5.83;;
13085;SDS011;6609;49.882;8.664;2023-02-28T13:20:04;11.63;;;5.30;;
13085;SDS011;6609;49.882;8.664;2023-02-28T13:22:39;13.93;;;6.30;;
13085;SDS011;6609;49.882;8.664;2023-02-28T13:31:33;13.23;;;5.77;;
13085;SDS011;6609;49.882;8.664;2023-02-28T13:34:38;11.37;;;5.77;;
13085;SDS011;6609;49.882;8.664;2023-02-28T13:40:06;11.03;;;5.33;;
13085;SDS011;6609;49.882;8.664;2023-02-28T13:42:48;11.07;;;5.13;;
13085;SDS011;6609;49.882;8.664;2023-02-28T13:45:23;9.17;;;5.53;;
13085;SDS011;6609;49.882;8.664;2023-02-28T13:47:53;10.73;;;6.20;;
13085;SDS011;6609;49.882;8.664;2023-02-28T13:50:33;12.67;;;6.20;;
13085;SDS011;6609;49.882;8.664;2023-02-28T13:53:24;8.60;;;4.73;;
13085;SDS011;6609;49.882;8.664;2023-02-28T13:56:21;11.87;;;5.33;;
13085;SDS011;6609;49.882;8.664;2023-02-28T13:58:57;11.60;;;5.80;;
13085;SDS011;6609;49.882;8.664;2023-02-28T14:01:38;11.97;;;6.07;;
13085;SDS011;6609;49.882;8.664;2023-02-28T14:07:25;10.67;;;5.20;;
13085;SDS011;6609;49.882;8.664;2023-02-28T14:09:57;12.73;;;5.30;;
13085;SDS011;6609;49.882;8.664;2023-02-28T14:15:38;11.07;;;5.63;;
13085;SDS011;6609;49.882;8.664;2023-02-28T14:18:16;8.43;;;4.67;;
13085;SDS011;6609;49.882;8.664;2023-02-28T14:20:48;8.60;;;4.53;;
13085;SDS011;6609;49.882;8.664;2023-02-28T14:23:22;10.67;;;4.80;;
13085;SDS011;6609;49.882;8.664;2023-02-28T14:26:01;9.90;;;5.27;;
13085;SDS011;6609;49.882;8.664;2023-02-28T14:28:38;13.70;;;5.40;;
13085;SDS011;6609;49.882;8.664;2023-02-28T14:31:22;9.43;;;4.90;;
13085;SDS011;6609;49.882;8.664;2023-02-28T14:33:57;10.03;;;5.30;;
13085;SDS011;6609;49.882;8.664;2023-02-28T14:36:44;13.90;;;6.40;;
13085;SDS011;6609;49.882;8.664;2023-02-28T14:39:12;11.80;;;5.57;;
13085;SDS011;6609;49.882;8.664;2023-02-28T14:41:40;13.33;;;5.73;;
13085;SDS011;6609;49.882;8.664;2023-02-28T14:44:16;13.57;;;5.07;;
13085;SDS011;6609;49.882;8.664;2023-02-28T14:46:45;14.07;;;6.13;;
13085;SDS011;6609;49.882;8.664;2023-02-28T14:49:15;9.97;;;4.90;;
13085;SDS011;6609;49.882;8.664;2023-02-28T14:51:46;8.00;;;4.80;;
13085;SDS011;6609;49.882;8.664;2023-02-28T14:54:15;8.37;;;4.93;;
13085;SDS011;6609;49.882;8.664;2023-02-28T14:56:43;8.87;;;5.47;;
13085;SDS011;6609;49.882;8.664;2023-02-28T14:59:23;7.83;;;4.80;;
13085;SDS011;6609;49.882;8.664;2023-02-28T15:04:51;18.80;;;5.83;;
13085;SDS011;6609;49.882;8.664;2023-02-28T15:07:21;11.77;;;5.30;;
13085;SDS011;6609;49.882;8.664;2023-02-28T15:10:06;10.00;;;5.23;;
13085;SDS011;6609;49.882;8.664;2023-02-28T15:12:45;8.63;;;4.90;;
13085;SDS011;6609;49.882;8.664;2023-02-28T15:15:19;10.40;;;5.40;;
13085;SDS011;6609;49.882;8.664;2023-02-28T15:17:49;12.93;;;5.47;;
13085;SDS011;6609;49.882;8.664;2023-02-28T15:20:20;21.57;;;8.20;;
13085;SDS011;6609;49.882;8.664;2023-02-28T15:22:50;19.10;;;7.50;;
13085;SDS011;6609;49.882;8.664;2023-02-28T15:25:21;14.30;;;6.17;;
13085;SDS011;6609;49.882;8.664;2023-02-28T15:27:49;12.10;;;5.43;;
13085;SDS011;6609;49.882;8.664;2023-02-28T15:30:17;9.40;;;5.13;;
13085;SDS011;6609;49.882;8.664;2023-02-28T15:32:46;13.77;;;5.33;;
13085;SDS011;6609;49.882;8.664;2023-02-28T15:35:30;10.60;;;5.07;;
13085;SDS011;6609;49.882;8.664;2023-02-28T15:38:00;12.13;;;4.87;;
13085;SDS011;6609;49.882;8.664;2023-02-28T15:40:31;12.50;;;5.83;;
13085;SDS011;6609;49.882;8.664;2023-02-28T15:43:06;14.53;;;6.33;;
13085;SDS011;6609;49.882;8.664;2023-02-28T15:45:37;12.27;;;5.63;;